Time;durP1;ratioP1;P1;durP2;ratioP2;P2;SDS_P1;SDS_P2;PMS_P1;PMS_P2;Temp;Humidity;BMP_temperature;BMP_pressure;BME280_temperature;BME280_humidity;BME280_pressure;Samples;Min_cycle;Max_cycle;Signal;HPM_P1;HPM_P2
2022/10/31 07:22:38;;;;;;;13.97;12.77;;;10.90;99.90;;;;;;5076521;27;20594;-81
2022/10/31 07:25:05;;;;;;;13.00;12.00;;;11.20;99.80;;;;;;5079899;28;20473;-80
2022/10/31 07:27:37;;;;;;;15.23;13.60;;;11.60;98.50;;;;;;5084293;28;20455;-80
2022/10/31 07:30:05;;;;;;;14.53;13.03;;;11.90;96.90;;;;;;5079057;28;20473;-80
2022/10/31 07:32:41;;;;;;;19.77;18.30;;;12.20;95.90;;;;;;5080288;28;20468;-80
2022/10/31 07:35:09;;;;;;;15.70;14.60;;;12.30;94.80;;;;;;5072657;28;20626;-80
2022/10/31 07:37:38;;;;;;;18.40;17.10;;;12.50;94.20;;;;;;5071707;28;20454;-80
2022/10/31 07:40:08;;;;;;;25.73;24.13;;;12.70;93.50;;;;;;5079780;28;20549;-80
2022/10/31 07:42:36;;;;;;;19.47;17.47;;;12.70;92.90;;;;;;5069799;28;21111;-81
2022/10/31 07:45:04;;;;;;;20.40;19.17;;;12.90;92.30;;;;;;5067064;28;20472;-81
2022/10/31 07:47:38;;;;;;;29.63;27.83;;;13.00;91.60;;;;;;5071075;28;21328;-80
2022/10/31 07:50:05;;;;;;;18.40;17.03;;;13.00;90.90;;;;;;5066906;28;20857;-81
2022/10/31 07:52:32;;;;;;;20.43;19.03;;;13.10;90.90;;;;;;5071394;28;20545;-80
2022/10/31 07:55:03;;;;;;;20.63;19.33;;;13.20;90.30;;;;;;5073215;28;20505;-83
2022/10/31 07:57:30;;;;;;;23.15;21.60;;;13.30;90.20;;;;;;5074130;28;20474;-81
2022/10/31 07:59:58;;;;;;;21.63;19.63;;;13.50;90.00;;;;;;5074382;28;20195;-81
2022/10/31 08:02:25;;;;;;;35.40;33.30;;;13.50;89.30;;;;;;5065769;28;20482;-81
2022/10/31 08:04:52;;;;;;;34.67;32.47;;;13.50;89.50;;;;;;5072634;28;20465;-79
2022/10/31 08:07:19;;;;;;;29.40;27.40;;;13.60;89.50;;;;;;5062359;28;20552;-79
2022/10/31 08:09:48;;;;;;;27.47;25.43;;;13.70;89.20;;;;;;5066670;28;20462;-78
2022/10/31 08:12:16;;;;;;;30.97;29.07;;;13.80;89.10;;;;;;5068769;28;20458;-79
2022/10/31 08:14:44;;;;;;;22.77;21.37;;;14.00;88.80;;;;;;5071902;28;20481;-78
2022/10/31 08:17:11;;;;;;;28.27;26.23;;;14.20;88.30;;;;;;5071885;28;20529;-81
2022/10/31 08:19:38;;;;;;;25.43;24.03;;;14.30;87.50;;;;;;5065123;28;20457;-80
2022/10/31 08:22:05;;;;;;;26.20;24.30;;;14.40;86.80;;;;;;5065693;28;20481;-81
2022/10/31 08:24:31;;;;;;;22.67;21.43;;;14.50;86.70;;;;;;5064253;28;20470;-81
2022/10/31 08:26:58;;;;;;;30.43;28.23;;;14.50;86.00;;;;;;5071804;28;21066;-80
2022/10/31 08:29:29;;;;;;;38.73;36.43;;;14.60;85.80;;;;;;5070693;28;20525;-80
2022/10/31 08:31:58;;;;;;;32.47;30.33;;;14.70;85.30;;;;;;5065265;28;21009;-80
2022/10/31 08:34:25;;;;;;;39.77;37.27;;;14.70;85.20;;;;;;5053887;28;20475;-80
2022/10/31 08:36:53;;;;;;;34.87;32.33;;;14.70;85.50;;;;;;5054392;28;20595;-78
2022/10/31 08:39:20;;;;;;;39.10;36.70;;;14.70;85.30;;;;;;5051223;28;20454;-77
2022/10/31 08:41:47;;;;;;;27.97;26.23;;;14.90;85.10;;;;;;5057142;28;20477;-78
2022/10/31 08:44:15;;;;;;;35.73;33.37;;;15.10;84.30;;;;;;5051164;28;20533;-78
2022/10/31 08:46:43;;;;;;;46.20;43.30;;;15.10;84.00;;;;;;5055606;28;20470;-78
2022/10/31 08:49:10;;;;;;;31.50;29.30;;;15.20;83.80;;;;;;5053362;28;20679;-78
2022/10/31 08:51:37;;;;;;;42.10;39.30;;;15.40;83.50;;;;;;5053105;28;20459;-77
2022/10/31 08:54:04;;;;;;;36.43;33.93;;;15.40;83.00;;;;;;5057860;28;20820;-78
2022/10/31 08:56:31;;;;;;;29.10;27.10;;;15.50;83.30;;;;;;5057337;28;20566;-78
2022/10/31 08:58:58;;;;;;;42.63;39.93;;;15.70;83.00;;;;;;5056456;28;20990;-78
2022/10/31 09:01:25;;;;;;;34.17;32.10;;;15.60;82.10;;;;;;5048837;28;20497;-78
2022/10/31 09:03:53;;;;;;;47.43;44.93;;;15.70;82.00;;;;;;5052545;28;20463;-78
2022/10/31 09:06:20;;;;;;;31.47;29.37;;;15.80;81.50;;;;;;5050641;28;20574;-77
2022/10/31 09:08:50;;;;;;;34.90;32.40;;;16.00;80.90;;;;;;5053246;28;20458;-78
2022/10/31 09:11:17;;;;;;;39.37;36.63;;;16.10;80.60;;;;;;5057414;28;20462;-78
2022/10/31 09:13:47;;;;;;;46.97;44.33;;;16.20;80.30;;;;;;5061743;28;20861;-78
2022/10/31 09:16:14;;;;;;;42.20;39.60;;;16.30;80.10;;;;;;5065481;28;20547;-78
2022/10/31 09:18:41;;;;;;;32.47;30.23;;;16.50;79.60;;;;;;5066494;28;20992;-77
2022/10/31 09:21:09;;;;;;;39.07;36.93;;;16.40;79.70;;;;;;5063635;28;20474;-77
2022/10/31 09:23:36;;;;;;;34.93;32.67;;;16.50;79.40;;;;;;5057388;28;20464;-78
2022/10/31 09:26:03;;;;;;;35.13;33.03;;;16.50;79.80;;;;;;5055647;28;20825;-78
2022/10/31 09:28:31;;;;;;;35.40;33.20;;;16.50;82.40;;;;;;5067190;28;20473;-78
2022/10/31 09:30:58;;;;;;;47.17;43.80;;;16.60;80.30;;;;;;5068511;28;20450;-76
2022/10/31 09:33:25;;;;;;;44.93;42.00;;;16.70;79.60;;;;;;5059872;28;20815;-78
2022/10/31 09:35:52;;;;;;;54.77;51.50;;;16.80;78.90;;;;;;5058638;28;20478;-78
2022/10/31 09:38:23;;;;;;;35.50;32.60;;;16.90;78.60;;;;;;5068772;28;20489;-78
2022/10/31 09:40:56;;;;;;;49.37;46.47;;;17.10;78.30;;;;;;5060870;28;20574;-78
2022/10/31 09:43:29;;;;;;;47.03;43.60;;;17.20;77.60;;;;;;5052295;28;20822;-80
2022/10/31 09:46:02;;;;;;;44.00;41.13;;;17.30;77.00;;;;;;5058348;28;21046;-76
2022/10/31 09:48:53;;;;;;;36.00;33.60;;;17.30;77.00;;;;;;5067829;28;20457;-77
2022/10/31 09:51:24;;;;;;;40.63;37.60;;;17.30;76.60;;;;;;5046779;28;20455;-76
2022/10/31 09:54:00;;;;;;;44.27;41.20;;;17.40;76.80;;;;;;5060056;28;20800;-76
2022/10/31 09:56:28;;;;;;;43.10;40.60;;;17.40;78.20;;;;;;5060363;28;20886;-77
2022/10/31 09:58:58;;;;;;;37.77;35.37;;;17.40;77.50;;;;;;5061938;28;20459;-77
2022/10/31 10:01:33;;;;;;;50.03;46.90;;;17.50;76.40;;;;;;5051772;28;20558;-77
2022/10/31 10:04:05;;;;;;;39.50;36.77;;;17.50;76.40;;;;;;5047410;28;20792;-77
2022/10/31 10:06:35;;;;;;;42.20;39.40;;;17.60;76.10;;;;;;5054056;28;20482;-77
2022/10/31 10:09:04;;;;;;;48.77;45.57;;;17.60;76.50;;;;;;5052673;28;20451;-77
2022/10/31 10:11:53;;;;;;;49.80;46.67;;;17.70;76.30;;;;;;5062631;28;20544;-76
2022/10/31 10:14:32;;;;;;;36.57;33.67;;;17.80;76.00;;;;;;5056838;28;20457;-76
2022/10/31 10:17:17;;;;;;;39.50;36.80;;;18.10;75.30;;;;;;5067354;28;20469;-75
2022/10/31 10:20:03;;;;;;;48.30;45.33;;;18.20;74.70;;;;;;5048330;28;20465;-77
2022/10/31 10:22:41;;;;;;;38.70;36.00;;;18.30;74.30;;;;;;5046869;28;20971;-77
2022/10/31 10:25:17;;;;;;;43.73;40.93;;;18.40;73.90;;;;;;5061578;28;20474;-77
2022/10/31 10:27:55;;;;;;;39.63;36.23;;;18.50;73.80;;;;;;5067227;28;20688;-77
2022/10/31 10:30:24;;;;;;;50.27;47.07;;;18.40;73.50;;;;;;5065571;28;20462;-77
2022/10/31 10:32:56;;;;;;;47.47;44.30;;;18.40;73.40;;;;;;5047851;28;20459;-77
2022/10/31 10:35:26;;;;;;;37.20;34.80;;;18.40;73.30;;;;;;5065317;28;20864;-77
2022/10/31 10:37:59;;;;;;;42.77;39.90;;;18.30;73.30;;;;;;5057114;28;20495;-77
2022/10/31 10:40:30;;;;;;;40.00;37.60;;;18.30;73.50;;;;;;5049220;28;20999;-77
2022/10/31 10:43:21;;;;;;;48.50;45.50;;;18.50;73.10;;;;;;5056622;28;20479;-77
2022/10/31 10:48:43;;;;;;;48.67;45.87;;;18.70;73.00;;;;;;5059169;28;20527;-76
2022/10/31 10:51:20;;;;;;;45.50;42.50;;;18.80;72.50;;;;;;5066423;28;20464;-77
2022/10/31 10:54:02;;;;;;;47.80;45.03;;;18.90;72.10;;;;;;5057228;28;20464;-76
2022/10/31 10:56:42;;;;;;;49.10;45.83;;;18.90;71.80;;;;;;5051883;28;20951;-76
2022/10/31 10:59:12;;;;;;;50.03;46.73;;;18.80;72.30;;;;;;5056052;28;20465;-76
2022/10/31 11:01:41;;;;;;;44.37;41.47;;;19.00;72.20;;;;;;5062791;28;20469;-77
2022/10/31 11:04:24;;;;;;;41.13;38.50;;;19.00;71.80;;;;;;5067544;28;20471;-76
2022/10/31 11:07:02;;;;;;;46.83;43.80;;;19.10;71.30;;;;;;5048557;28;20550;-77
2022/10/31 11:09:29;;;;;;;38.83;36.37;;;19.10;71.10;;;;;;5061931;28;20477;-77
2022/10/31 11:11:59;;;;;;;54.87;51.60;;;19.00;71.50;;;;;;5051137;28;20539;-77
2022/10/31 11:14:27;;;;;;;42.33;39.50;;;19.00;71.50;;;;;;5050955;28;20521;-77
2022/10/31 11:17:07;;;;;;;44.53;41.73;;;19.10;71.80;;;;;;5049794;28;20506;-77
2022/10/31 11:19:34;;;;;;;42.33;39.80;;;19.30;71.50;;;;;;5057782;28;20545;-77
2022/10/31 11:22:07;;;;;;;49.30;46.70;;;19.30;71.10;;;;;;5065709;28;20470;-77
2022/10/31 11:24:40;;;;;;;49.77;46.83;;;19.40;71.00;;;;;;5059732;28;20955;-77
2022/10/31 11:27:16;;;;;;;41.80;39.13;;;19.60;70.80;;;;;;5051660;28;20961;-77
2022/10/31 11:29:43;;;;;;;47.43;44.60;;;19.70;70.20;;;;;;5045147;28;20478;-77
2022/10/31 11:32:21;;;;;;;39.40;36.80;;;19.70;70.00;;;;;;5048721;28;20952;-77
2022/10/31 11:34:52;;;;;;;42.33;39.33;;;19.90;69.60;;;;;;5050569;28;20839;-81
2022/10/31 11:37:22;;;;;;;38.60;36.10;;;19.90;69.50;;;;;;5061398;28;20726;-86
2022/10/31 11:39:53;;;;;;;40.50;37.70;;;19.90;69.60;;;;;;5057814;28;20494;-84
2022/10/31 11:42:24;;;;;;;43.47;40.57;;;19.80;69.80;;;;;;5061468;28;20485;-84
2022/10/31 11:44:52;;;;;;;39.60;37.20;;;19.90;69.80;;;;;;5052544;28;20501;-82
2022/10/31 11:47:24;;;;;;;53.47;50.23;;;20.00;69.80;;;;;;5058876;28;20459;-84
2022/10/31 11:49:51;;;;;;;50.77;47.43;;;20.00;69.70;;;;;;5060123;28;20442;-84
2022/10/31 11:52:21;;;;;;;37.27;34.67;;;20.00;69.90;;;;;;5057790;28;20447;-82
2022/10/31 11:54:53;;;;;;;42.87;40.17;;;20.00;69.90;;;;;;5060236;28;20557;-82
2022/10/31 11:57:27;;;;;;;46.70;43.57;;;20.10;69.50;;;;;;5066738;28;20480;-84
2022/10/31 11:59:56;;;;;;;44.33;41.53;;;20.20;69.40;;;;;;5052698;28;20508;-83
2022/10/31 12:02:23;;;;;;;42.07;39.57;;;20.30;69.60;;;;;;5052948;28;20463;-83
2022/10/31 12:04:56;;;;;;;40.13;37.27;;;20.30;69.90;;;;;;5056068;28;20478;-83
2022/10/31 12:07:24;;;;;;;49.67;46.83;;;20.40;69.60;;;;;;5061364;28;20931;-83
2022/10/31 12:09:51;;;;;;;42.93;40.00;;;20.50;69.40;;;;;;5056341;28;20463;-83
2022/10/31 12:12:53;;;;;;;42.07;39.30;;;20.60;68.80;;;;;;5060936;28;20459;-81
2022/10/31 12:15:33;;;;;;;50.50;46.90;;;20.60;68.50;;;;;;5058067;28;20604;-80
2022/10/31 12:18:23;;;;;;;43.57;41.07;;;20.70;68.40;;;;;;5053403;28;20943;-81
2022/10/31 12:21:03;;;;;;;48.53;45.50;;;20.80;68.30;;;;;;5049893;28;20467;-80
2022/10/31 12:23:39;;;;;;;50.43;47.37;;;20.90;68.10;;;;;;5052109;28;20553;-80
2022/10/31 12:26:17;;;;;;;42.60;39.60;;;20.80;68.00;;;;;;5051673;28;20481;-79
2022/10/31 12:29:03;;;;;;;46.80;44.10;;;20.80;68.50;;;;;;5053875;28;20978;-80
2022/10/31 12:31:44;;;;;;;40.17;37.67;;;20.90;68.20;;;;;;5053693;28;20494;-80
2022/10/31 12:34:46;;;;;;;45.80;42.73;;;20.90;67.80;;;;;;5052692;28;20503;-80
2022/10/31 12:37:24;;;;;;;56.40;53.20;;;20.90;68.00;;;;;;5053685;28;20859;-80
2022/10/31 12:40:01;;;;;;;44.93;42.13;;;20.90;68.10;;;;;;5054110;28;20463;-83
2022/10/31 12:42:44;;;;;;;46.80;43.60;;;20.90;68.10;;;;;;5048933;28;20565;-80
2022/10/31 12:45:36;;;;;;;46.37;43.47;;;21.00;68.30;;;;;;5054784;28;21019;-80
2022/10/31 12:48:33;;;;;;;45.47;42.43;;;20.90;68.30;;;;;;5052477;28;20534;-80
2022/10/31 12:51:10;;;;;;;53.43;50.10;;;20.90;68.50;;;;;;5052491;28;20550;-80
2022/10/31 12:53:57;;;;;;;45.57;42.77;;;20.80;68.60;;;;;;5057026;28;20457;-81
2022/10/31 12:56:37;;;;;;;43.17;40.10;;;20.70;68.90;;;;;;5053340;28;20565;-81
2022/10/31 12:59:10;;;;;;;45.47;42.37;;;20.70;69.00;;;;;;5051016;28;20472;-81
2022/10/31 13:01:43;;;;;;;49.07;45.60;;;20.70;69.20;;;;;;5049087;28;20456;-80
2022/10/31 13:04:17;;;;;;;40.97;38.43;;;20.70;69.20;;;;;;5047136;28;20564;-79
2022/10/31 13:06:48;;;;;;;43.50;40.80;;;20.60;69.30;;;;;;5054495;28;20489;-78
2022/10/31 13:09:21;;;;;;;48.20;44.70;;;20.60;69.60;;;;;;5055962;28;20459;-80
2022/10/31 13:11:52;;;;;;;41.77;38.97;;;20.50;70.00;;;;;;5058874;28;20458;-80
2022/10/31 13:14:26;;;;;;;42.10;38.67;;;20.50;70.40;;;;;;5057513;28;20537;-80
2022/10/31 13:16:56;;;;;;;41.10;38.83;;;20.50;70.30;;;;;;5064200;28;20542;-80
2022/10/31 13:19:26;;;;;;;53.90;50.20;;;20.50;70.40;;;;;;5053322;28;20446;-80
2022/10/31 13:22:00;;;;;;;41.20;38.40;;;20.40;70.80;;;;;;5063813;28;20564;-80
2022/10/31 13:24:35;;;;;;;42.17;39.43;;;20.30;71.10;;;;;;5052156;28;20459;-77
2022/10/31 13:27:10;;;;;;;44.07;41.27;;;20.30;71.40;;;;;;5065800;28;20473;-79
2022/10/31 13:29:43;;;;;;;45.70;42.20;;;20.30;71.30;;;;;;5062373;28;20593;-75
2022/10/31 13:32:12;;;;;;;43.87;40.90;;;20.30;71.10;;;;;;5049802;28;20490;-76
2022/10/31 13:34:42;;;;;;;53.17;49.60;;;20.40;71.20;;;;;;5059753;28;20457;-78
2022/10/31 13:37:18;;;;;;;42.03;39.13;;;20.50;70.90;;;;;;5066447;28;20474;-81
2022/10/31 13:40:01;;;;;;;49.37;46.50;;;20.60;70.60;;;;;;5058926;28;20512;-81
2022/10/31 13:42:41;;;;;;;46.87;43.70;;;20.60;70.50;;;;;;5057769;28;20510;-80
2022/10/31 13:45:14;;;;;;;54.27;50.90;;;20.70;70.30;;;;;;5053660;28;20493;-82
2022/10/31 13:47:43;;;;;;;52.07;48.53;;;20.80;70.00;;;;;;5057661;28;20554;-79
2022/10/31 13:50:21;;;;;;;51.87;48.50;;;20.90;69.80;;;;;;5060393;28;20458;-80
2022/10/31 13:52:48;;;;;;;53.73;50.33;;;21.00;69.50;;;;;;5056294;28;20462;-78
2022/10/31 13:55:40;;;;;;;42.07;39.47;;;21.10;69.20;;;;;;5053504;28;20507;-82
2022/10/31 13:58:22;;;;;;;41.60;38.63;;;21.10;69.10;;;;;;5052557;28;20508;-88
2022/10/31 14:01:02;;;;;;;52.00;47.90;;;21.00;69.10;;;;;;5053357;28;21145;-87
2022/10/31 14:03:34;;;;;;;52.10;48.40;;;20.80;69.60;;;;;;5049253;28;20482;-87
2022/10/31 14:06:01;;;;;;;53.33;50.13;;;20.70;69.80;;;;;;5052796;28;20875;-89
2022/10/31 14:08:32;;;;;;;40.83;37.87;;;20.50;70.30;;;;;;5050279;28;21014;-91
2022/10/31 14:10:59;;;;;;;42.87;39.83;;;20.40;70.50;;;;;;5047806;28;20451;-85
2022/10/31 14:13:33;;;;;;;47.00;44.10;;;20.40;70.60;;;;;;5058730;28;20902;-87
2022/10/31 14:16:03;;;;;;;48.37;45.07;;;20.40;70.80;;;;;;5056891;28;20465;-87
2022/10/31 14:18:35;;;;;;;55.80;52.30;;;20.40;70.90;;;;;;5055786;28;20952;-88
2022/10/31 14:21:02;;;;;;;46.17;42.93;;;20.40;70.80;;;;;;5067412;28;20472;-84
2022/10/31 14:23:42;;;;;;;47.40;44.00;;;20.40;70.90;;;;;;5051604;28;20481;-85
2022/10/31 14:26:34;;;;;;;44.20;41.03;;;20.40;71.00;;;;;;5064459;28;20490;-86
2022/10/31 14:29:03;;;;;;;53.57;49.80;;;20.30;71.20;;;;;;5060019;28;20458;-84
2022/10/31 14:31:36;;;;;;;43.07;39.77;;;20.20;71.40;;;;;;5054497;28;20501;-83
2022/10/31 14:34:22;;;;;;;55.27;51.40;;;20.10;71.70;;;;;;5058209;28;20459;-81
2022/10/31 14:37:00;;;;;;;45.30;42.33;;;20.20;71.60;;;;;;5064661;28;20461;-82
2022/10/31 14:39:33;;;;;;;56.73;52.87;;;20.30;71.60;;;;;;5069517;28;20923;-83
2022/10/31 14:42:15;;;;;;;41.73;38.57;;;20.30;71.40;;;;;;5061658;28;20491;-83
2022/10/31 14:45:14;;;;;;;41.97;38.80;;;20.30;71.40;;;;;;5061410;28;20490;-83
2022/10/31 14:47:53;;;;;;;59.77;55.87;;;20.20;71.50;;;;;;5044889;28;20971;-85
2022/10/31 14:50:38;;;;;;;45.37;42.70;;;20.20;71.70;;;;;;5068257;28;21386;-83
2022/10/31 14:53:07;;;;;;;55.27;51.67;;;20.10;71.70;;;;;;5060204;28;20442;-86
2022/10/31 14:55:34;;;;;;;49.13;45.53;;;20.10;71.80;;;;;;5058480;28;20609;-85
2022/10/31 14:58:09;;;;;;;44.83;42.03;;;20.10;71.80;;;;;;5067190;28;20533;-85
2022/10/31 15:00:37;;;;;;;50.77;47.27;;;20.10;72.00;;;;;;5068234;28;20458;-86
2022/10/31 15:03:15;;;;;;;47.07;43.83;;;20.00;72.10;;;;;;5052077;28;21026;-84
2022/10/31 15:05:49;;;;;;;40.53;38.00;;;20.00;72.20;;;;;;5057043;28;20501;-83
2022/10/31 15:08:30;;;;;;;45.83;42.90;;;20.00;72.30;;;;;;5066340;28;20536;-81
2022/10/31 15:10:57;;;;;;;46.03;42.80;;;20.00;72.40;;;;;;5065710;28;20956;-82
2022/10/31 15:13:24;;;;;;;45.70;42.47;;;20.00;72.60;;;;;;5050092;28;20538;-81
2022/10/31 15:15:54;;;;;;;59.20;55.53;;;19.90;72.90;;;;;;5053058;28;20565;-82
2022/10/31 15:18:25;;;;;;;50.90;47.40;;;19.70;74.10;;;;;;5059828;28;20485;-82
2022/10/31 15:20:55;;;;;;;50.60;47.30;;;19.60;75.40;;;;;;5054168;28;20541;-80
2022/10/31 15:23:25;;;;;;;53.10;49.60;;;19.40;76.70;;;;;;5054035;28;20565;-80
2022/10/31 15:26:00;;;;;;;56.93;53.50;;;19.20;77.10;;;;;;5054552;28;20475;-80
2022/10/31 15:28:28;;;;;;;42.53;39.30;;;19.10;77.40;;;;;;5048570;28;20450;-80
2022/10/31 15:30:57;;;;;;;50.93;47.60;;;19.00;77.60;;;;;;5061558;28;21297;-80
2022/10/31 15:33:26;;;;;;;44.37;41.40;;;18.90;77.90;;;;;;5058560;28;20507;-83
2022/10/31 15:35:59;;;;;;;51.53;47.73;;;18.80;78.20;;;;;;5061124;28;21142;-86
2022/10/31 15:38:26;;;;;;;41.13;38.50;;;18.80;78.40;;;;;;5050959;28;20508;-83
2022/10/31 15:41:05;;;;;;;55.17;51.97;;;18.60;78.70;;;;;;5062429;28;20489;-86
2022/10/31 15:43:36;;;;;;;48.90;45.60;;;18.60;79.20;;;;;;5066929;28;20470;-85
2022/10/31 15:46:03;;;;;;;48.83;45.63;;;18.50;79.50;;;;;;5070136;28;20492;-85
2022/10/31 15:48:36;;;;;;;42.03;38.97;;;18.30;79.80;;;;;;5063966;28;20581;-85
2022/10/31 15:51:06;;;;;;;53.27;49.70;;;18.20;80.30;;;;;;5069465;28;20461;-87
2022/10/31 15:53:39;;;;;;;54.17;50.77;;;18.20;80.50;;;;;;5065922;28;20871;-85
2022/10/31 15:56:14;;;;;;;41.63;38.80;;;18.00;81.80;;;;;;5055597;28;20568;-85
2022/10/31 15:58:44;;;;;;;37.53;35.23;;;17.80;82.80;;;;;;5064508;28;20943;-85
2022/10/31 16:01:23;;;;;;;42.07;38.27;;;17.60;83.30;;;;;;5065054;28;20520;-85
2022/10/31 16:04:07;;;;;;;47.33;43.80;;;17.50;83.60;;;;;;5065653;28;20477;-86
2022/10/31 16:06:36;;;;;;;54.27;49.30;;;17.40;83.80;;;;;;5063266;28;20489;-86
2022/10/31 16:09:05;;;;;;;36.77;32.70;;;17.40;83.90;;;;;;5054673;28;20459;-85
2022/10/31 16:11:36;;;;;;;39.17;36.27;;;17.30;84.20;;;;;;5064702;28;20991;-86
2022/10/31 16:14:07;;;;;;;42.53;39.70;;;17.30;84.20;;;;;;5063881;28;20457;-85
2022/10/31 16:16:42;;;;;;;50.20;47.00;;;17.20;84.20;;;;;;5057104;28;20491;-85
2022/10/31 16:19:17;;;;;;;49.43;45.73;;;17.20;84.40;;;;;;5057545;28;20458;-86
2022/10/31 16:21:51;;;;;;;36.57;34.20;;;17.00;84.80;;;;;;5059090;28;20467;-85
2022/10/31 16:24:22;;;;;;;34.13;31.93;;;16.90;85.10;;;;;;5063888;28;20510;-85
2022/10/31 16:26:50;;;;;;;36.37;33.77;;;16.80;85.30;;;;;;5059293;28;20490;-82
2022/10/31 16:29:43;;;;;;;;;;;;;;;;;;;;;
2022/10/31 16:32:26;;;;;;;44.33;40.70;;;16.60;86.20;;;;;;5065815;28;20481;-85
2022/10/31 16:35:00;;;;;;;29.73;27.57;;;16.60;86.40;;;;;;5063661;28;20534;-85
2022/10/31 16:37:33;;;;;;;33.30;31.00;;;16.50;86.40;;;;;;5066829;28;20797;-84
2022/10/31 16:40:00;;;;;;;32.80;29.97;;;16.40;87.20;;;;;;5069881;28;20475;-85
2022/10/31 16:42:28;;;;;;;44.50;40.90;;;16.40;88.00;;;;;;5076817;28;20423;-83
2022/10/31 16:44:59;;;;;;;33.00;30.70;;;16.30;87.70;;;;;;5080814;28;20534;-82
2022/10/31 16:47:26;;;;;;;33.50;30.90;;;16.20;87.90;;;;;;5076727;28;20458;-82
2022/10/31 16:49:53;;;;;;;38.43;35.73;;;16.10;88.40;;;;;;5069766;28;20498;-82
2022/10/31 16:52:20;;;;;;;27.50;25.30;;;16.00;88.50;;;;;;5072033;28;20522;-81
2022/10/31 16:54:48;;;;;;;31.93;29.73;;;15.90;88.60;;;;;;5072570;28;20467;-81
2022/10/31 16:57:18;;;;;;;36.20;34.00;;;15.80;88.80;;;;;;5078275;28;20549;-81
2022/10/31 16:59:47;;;;;;;29.83;27.70;;;15.80;89.00;;;;;;5070092;28;20573;-80
2022/10/31 17:02:17;;;;;;;31.77;29.37;;;15.80;89.10;;;;;;5065103;28;20546;-80
2022/10/31 17:04:44;;;;;;;45.47;42.33;;;15.70;89.40;;;;;;5077308;28;20499;-80
2022/10/31 17:07:11;;;;;;;37.73;34.93;;;15.60;89.60;;;;;;5070387;28;20458;-80
2022/10/31 17:09:38;;;;;;;43.90;40.60;;;15.50;89.80;;;;;;5070978;28;20478;-80
2022/10/31 17:12:14;;;;;;;30.03;27.20;;;15.50;90.10;;;;;;5074221;28;20522;-80
2022/10/31 17:14:41;;;;;;;26.33;24.03;;;15.50;90.10;;;;;;5074291;28;20466;-80
2022/10/31 17:17:09;;;;;;;28.63;26.30;;;15.50;89.80;;;;;;5068030;28;20447;-80
2022/10/31 17:19:36;;;;;;;25.80;23.63;;;15.40;90.20;;;;;;5070477;28;20519;-80
2022/10/31 17:22:03;;;;;;;37.60;35.30;;;15.30;90.70;;;;;;5083549;28;20508;-80
2022/10/31 17:24:30;;;;;;;28.63;25.77;;;15.30;91.00;;;;;;5061044;28;20509;-80
2022/10/31 17:26:56;;;;;;;38.27;35.23;;;15.20;91.00;;;;;;5060153;28;20505;-81
2022/10/31 17:29:25;;;;;;;36.00;33.07;;;15.20;91.00;;;;;;5054446;28;20527;-81
2022/10/31 17:31:52;;;;;;;23.23;21.20;;;15.20;91.30;;;;;;5062157;28;20462;-80
2022/10/31 17:34:19;;;;;;;28.73;25.83;;;15.20;91.20;;;;;;5059385;28;20451;-81
2022/10/31 17:36:51;;;;;;;25.63;23.57;;;15.10;91.30;;;;;;5059804;28;20489;-80
2022/10/31 17:39:18;;;;;;;25.60;23.03;;;15.10;91.50;;;;;;5060669;28;20459;-81
2022/10/31 17:41:45;;;;;;;28.70;26.40;;;15.00;92.00;;;;;;5059002;28;20501;-80
2022/10/31 17:44:12;;;;;;;33.23;30.83;;;14.80;92.50;;;;;;5061029;28;20582;-81
2022/10/31 17:46:41;;;;;;;28.83;26.27;;;14.80;92.70;;;;;;5052361;28;21068;-81
2022/10/31 17:49:08;;;;;;;24.30;22.33;;;14.80;92.50;;;;;;5062680;28;20462;-81
2022/10/31 17:51:35;;;;;;;27.20;25.20;;;14.80;92.50;;;;;;5061168;28;20454;-81
2022/10/31 17:54:07;;;;;;;34.27;31.20;;;14.80;92.50;;;;;;5065050;28;20545;-81
2022/10/31 17:56:34;;;;;;;37.73;34.70;;;14.70;92.70;;;;;;5053314;28;20886;-81
2022/10/31 17:59:02;;;;;;;30.43;27.00;;;14.70;92.70;;;;;;5056709;28;20455;-81
2022/10/31 18:01:29;;;;;;;27.60;25.43;;;14.70;92.50;;;;;;5067566;28;20549;-80
2022/10/31 18:03:57;;;;;;;26.07;23.47;;;14.70;92.70;;;;;;5069295;28;20510;-80
2022/10/31 18:06:27;;;;;;;29.87;24.10;;;14.60;92.80;;;;;;5073031;28;20509;-80
2022/10/31 18:08:56;;;;;;;24.23;22.10;;;14.50;93.10;;;;;;5071295;28;20483;-80
2022/10/31 18:11:23;;;;;;;28.73;26.20;;;14.50;93.20;;;;;;5070549;28;20467;-80
2022/10/31 18:13:55;;;;;;;31.20;28.00;;;14.40;93.20;;;;;;5067774;28;20482;-80
2022/10/31 18:16:23;;;;;;;33.03;30.23;;;14.40;93.20;;;;;;5072099;28;20479;-80
2022/10/31 18:18:51;;;;;;;22.47;20.67;;;14.40;93.60;;;;;;5068509;28;20461;-80
2022/10/31 18:21:20;;;;;;;30.37;28.27;;;14.30;94.50;;;;;;5064459;28;20499;-80
2022/10/31 18:23:47;;;;;;;25.53;23.03;;;14.30;94.10;;;;;;5067524;28;20519;-80
2022/10/31 18:26:14;;;;;;;25.60;23.20;;;14.30;93.90;;;;;;5062932;28;20467;-80
2022/10/31 18:28:44;;;;;;;27.77;24.00;;;14.30;93.70;;;;;;5059998;28;20451;-80
2022/10/31 18:31:11;;;;;;;24.20;22.10;;;14.30;93.40;;;;;;5067323;28;20549;-82
2022/10/31 18:33:38;;;;;;;27.53;25.20;;;14.30;93.50;;;;;;5063720;28;20455;-80
2022/10/31 18:36:06;;;;;;;24.97;22.63;;;14.30;93.40;;;;;;5055263;28;21102;-78
2022/10/31 18:38:38;;;;;;;29.90;27.20;;;14.20;93.50;;;;;;5051023;28;20455;-78
2022/10/31 18:41:05;;;;;;;24.07;21.50;;;14.20;93.40;;;;;;5071025;28;20479;-80
2022/10/31 18:43:32;;;;;;;25.53;23.30;;;14.30;93.00;;;;;;5051713;28;20481;-78
2022/10/31 18:46:02;;;;;;;32.07;29.37;;;14.50;92.40;;;;;;5049209;28;20483;-78
2022/10/31 18:48:30;;;;;;;29.30;26.80;;;14.30;92.90;;;;;;5052482;28;20453;-78
2022/10/31 18:50:58;;;;;;;30.50;27.50;;;14.30;93.40;;;;;;5059221;28;20822;-75
2022/10/31 18:53:25;;;;;;;35.17;32.00;;;14.20;93.70;;;;;;5059228;28;20507;-75
2022/10/31 18:55:53;;;;;;;27.03;24.33;;;14.20;93.60;;;;;;5057993;28;20466;-76
2022/10/31 18:58:20;;;;;;;36.63;24.23;;;14.30;93.50;;;;;;5053779;28;20481;-76
2022/10/31 19:00:48;;;;;;;32.77;30.27;;;14.20;93.70;;;;;;5059555;28;20508;-78
2022/10/31 19:03:16;;;;;;;31.73;29.03;;;14.20;93.80;;;;;;5052863;28;20467;-78
2022/10/31 19:05:43;;;;;;;26.07;23.30;;;14.30;93.50;;;;;;5058179;28;20535;-76
2022/10/31 19:08:11;;;;;;;26.87;22.10;;;14.20;93.50;;;;;;5053156;28;20470;-83
2022/10/31 19:10:40;;;;;;;33.07;30.10;;;14.30;93.40;;;;;;5054507;28;20527;-82
2022/10/31 19:13:09;;;;;;;27.27;24.73;;;14.30;93.40;;;;;;5050861;28;20546;-79
2022/10/31 19:15:36;;;;;;;25.27;23.17;;;14.40;93.20;;;;;;5050779;28;20545;-79
2022/10/31 19:18:04;;;;;;;24.40;21.90;;;14.40;93.10;;;;;;5056806;28;20587;-81
2022/10/31 19:20:31;;;;;;;32.93;30.43;;;14.40;92.90;;;;;;5055270;28;20462;-79
2022/10/31 19:22:58;;;;;;;26.33;23.57;;;14.50;92.70;;;;;;5055950;28;20903;-78
2022/10/31 19:25:26;;;;;;;28.30;25.50;;;14.70;91.70;;;;;;5061182;28;20498;-78
2022/10/31 19:27:52;;;;;;;24.77;22.63;;;14.70;91.40;;;;;;5052514;28;20466;-77
2022/10/31 19:30:21;;;;;;;26.27;23.60;;;14.80;91.40;;;;;;5052773;28;20469;-79
2022/10/31 19:32:50;;;;;;;25.50;23.23;;;14.70;91.40;;;;;;5056704;28;20458;-78
2022/10/31 19:35:18;;;;;;;30.27;27.93;;;14.70;92.00;;;;;;5055830;28;20482;-79
2022/10/31 19:37:44;;;;;;;27.90;25.87;;;14.70;91.30;;;;;;5051313;28;20971;-78
2022/10/31 19:40:12;;;;;;;27.17;24.93;;;14.70;91.20;;;;;;5056722;28;20568;-79
2022/10/31 19:42:48;;;;;;;35.83;33.07;;;14.70;91.30;;;;;;5052885;28;20589;-78
2022/10/31 19:45:15;;;;;;;33.10;29.57;;;14.70;91.20;;;;;;5050521;28;20561;-79
2022/10/31 19:47:44;;;;;;;36.70;33.70;;;14.70;91.40;;;;;;5058622;28;21062;-74
2022/10/31 19:50:11;;;;;;;27.60;25.00;;;14.70;91.20;;;;;;5058122;28;20459;-80
2022/10/31 19:52:40;;;;;;;26.80;24.27;;;14.70;90.80;;;;;;5058178;28;20477;-81
2022/10/31 19:55:08;;;;;;;26.77;24.17;;;14.70;90.70;;;;;;5056423;28;20473;-80
2022/10/31 19:57:36;;;;;;;29.53;26.57;;;14.70;90.60;;;;;;5051375;28;20568;-75
2022/10/31 20:00:03;;;;;;;33.93;31.33;;;14.70;90.40;;;;;;5063701;28;20489;-81
2022/10/31 20:02:31;;;;;;;28.33;26.10;;;14.70;90.40;;;;;;5063656;28;20479;-78
2022/10/31 20:05:00;;;;;;;28.13;25.37;;;14.60;90.40;;;;;;5055563;28;21002;-77
2022/10/31 20:07:27;;;;;;;26.63;24.13;;;14.60;90.60;;;;;;5050691;28;20455;-79
2022/10/31 20:09:55;;;;;;;36.47;33.77;;;14.70;90.60;;;;;;5049214;28;20410;-79
2022/10/31 20:12:22;;;;;;;33.47;29.37;;;14.50;90.70;;;;;;5047888;28;20459;-79
2022/10/31 20:14:49;;;;;;;32.17;29.27;;;14.50;90.90;;;;;;5048325;28;20933;-79